Orbital elements of FENGYUN 1C DEB
| Launched | 9 May 1999 |
| Flight ended | – |
| Launch site | Taiyuan Space Center, PRC |
| Owner | People's Republic of China |
| NORAD ID | 29843 |
| Date fetched |
Epoch osculation |
Inc. [°] |
Ecc. | RA asc node [hr] |
Arg Peri. [°] |
Mean anom [°] |
Mean motion [rev/day] |
Abs. mag |
| Date fetched |
Epoch osculation |
Inc. [°] |
Ecc. | RA asc node [hr] |
Arg Peri. [°] |
Mean anom [°] |
Mean motion [rev/day] |
Abs. mag |
| 2026 May 09 17:57 | 2026 May 05 08:43:19 | 99.0295 | 0.01908 | 22.2609 | 234.4827 | 304.6514 | 14.28833 | – |
| 2026 May 08 17:57 | 2026 May 05 08:43:19 | 99.0295 | 0.01908 | 22.2609 | 234.4827 | 304.6514 | 14.28833 | – |
| 2026 May 07 17:58 | 2026 May 05 08:43:19 | 99.0295 | 0.01908 | 22.2609 | 234.4827 | 304.6514 | 14.28833 | – |
| 2026 May 06 17:57 | 2026 May 05 08:43:19 | 99.0295 | 0.01908 | 22.2609 | 234.4827 | 304.6514 | 14.28833 | – |
| 2026 May 05 17:57 | 2026 May 05 08:43:19 | 99.0295 | 0.01908 | 22.2609 | 234.4827 | 304.6514 | 14.28833 | – |
| 2026 May 04 17:57 | 2026 Apr 30 13:54:51 | 99.0301 | 0.01907 | 21.9306 | 248.4010 | 304.6514 | 14.28833 | – |
| 2026 May 03 17:57 | 2026 Apr 30 13:54:51 | 99.0301 | 0.01907 | 21.9306 | 248.4010 | 304.6514 | 14.28833 | – |
| 2026 May 02 17:57 | 2026 Apr 30 13:54:51 | 99.0301 | 0.01907 | 21.9306 | 248.4010 | 304.6514 | 14.28833 | – |
| 2026 May 01 17:56 | 2026 Apr 30 13:54:51 | 99.0301 | 0.01907 | 21.9306 | 248.4010 | 304.6514 | 14.28833 | – |
| 2026 Apr 30 17:56 | 2026 Apr 30 13:54:51 | 99.0301 | 0.01907 | 21.9306 | 248.4010 | 304.6514 | 14.28833 | – |
| 2026 Apr 29 17:57 | 2026 Apr 24 13:19:07 | 99.0309 | 0.01906 | 21.5145 | 265.9474 | 304.6514 | 14.28833 | – |
| 2026 Apr 28 17:56 | 2026 Apr 24 13:19:07 | 99.0309 | 0.01906 | 21.5145 | 265.9474 | 304.6514 | 14.28833 | – |
| 2026 Apr 27 17:58 | 2026 Apr 24 13:19:07 | 99.0309 | 0.01906 | 21.5145 | 265.9474 | 304.6514 | 14.28833 | – |
| 2026 Apr 26 17:58 | 2026 Apr 24 13:19:07 | 99.0309 | 0.01906 | 21.5145 | 265.9474 | 304.6514 | 14.28833 | – |
| 2026 Apr 25 17:58 | 2026 Apr 24 13:19:07 | 99.0309 | 0.01906 | 21.5145 | 265.9474 | 304.6514 | 14.28833 | – |
| 2026 Apr 24 17:59 | 2026 Apr 24 13:19:07 | 99.0309 | 0.01906 | 21.5145 | 265.9474 | 304.6514 | 14.28833 | – |
| 2026 Apr 23 17:57 | 2026 Apr 19 12:23:28 | 99.0316 | 0.01907 | 21.1666 | 280.6299 | 304.6514 | 14.28833 | – |
| 2026 Apr 22 17:57 | 2026 Apr 19 12:23:28 | 99.0316 | 0.01907 | 21.1666 | 280.6299 | 304.6514 | 14.28833 | – |
| 2026 Apr 21 17:57 | 2026 Apr 19 12:23:28 | 99.0316 | 0.01907 | 21.1666 | 280.6299 | 304.6514 | 14.28833 | – |
| 2026 Apr 20 17:57 | 2026 Apr 19 12:23:28 | 99.0316 | 0.01907 | 21.1666 | 280.6299 | 304.6514 | 14.28833 | – |
| 2026 Apr 19 17:58 | 2026 Apr 19 12:23:28 | 99.0316 | 0.01907 | 21.1666 | 280.6299 | 304.6514 | 14.28833 | – |
| 2026 Apr 18 17:56 | 2026 Apr 12 20:27:30 | 99.0328 | 0.01909 | 20.7063 | 300.0322 | 304.6514 | 14.28833 | – |
| 2026 Apr 16 17:57 | 2026 Apr 12 20:27:30 | 99.0328 | 0.01909 | 20.7063 | 300.0322 | 304.6514 | 14.28833 | – |
| 2026 Apr 14 17:57 | 2026 Apr 12 20:27:30 | 99.0328 | 0.01909 | 20.7063 | 300.0322 | 304.6514 | 14.28833 | – |
| 2026 Apr 13 17:57 | 2026 Apr 12 20:27:30 | 99.0328 | 0.01909 | 20.7063 | 300.0322 | 304.6514 | 14.28833 | – |
| 2026 Apr 12 17:57 | 2026 Apr 08 12:16:59 | 99.0330 | 0.01910 | 20.4065 | 312.6636 | 304.6514 | 14.28833 | – |